Time;durP1;ratioP1;P1;durP2;ratioP2;P2;SDS_P1;SDS_P2;PMS_P1;PMS_P2;Temp;Humidity;BMP_temperature;BMP_pressure;BME280_temperature;BME280_humidity;BME280_pressure;Samples;Min_cycle;Max_cycle;Signal;HPM_P1;HPM_P2
2023/12/20 00:01:19;;;;;;;;;;;19.20;55.90;;;;;;7391933;19;2831;-74
2023/12/20 00:03:44;;;;;;;;;;;19.10;55.90;;;;;;7391687;19;1572;-74
2023/12/20 00:06:10;;;;;;;;;;;19.10;55.90;;;;;;7390841;19;1509;-74
2023/12/20 00:08:35;;;;;;;;;;;19.10;55.90;;;;;;7395400;19;3281;-74
2023/12/20 00:11:01;;;;;;;;;;;19.00;55.80;;;;;;7400975;19;1697;-74
2023/12/20 00:13:26;;;;;;;;;;;19.00;55.80;;;;;;7404602;19;2299;-74
2023/12/20 00:15:51;;;;;;;;;;;19.00;55.80;;;;;;7397492;19;4315;-74
2023/12/20 00:18:17;;;;;;;;;;;19.00;55.80;;;;;;7403560;19;1428;-74
2023/12/20 00:20:42;;;;;;;;;;;19.00;55.80;;;;;;7403125;19;1662;-74
2023/12/20 00:23:08;;;;;;;;;;;18.90;55.70;;;;;;7400985;19;3339;-74
2023/12/20 00:25:34;;;;;;;;;;;18.90;55.70;;;;;;7399828;19;2535;-74
2023/12/20 00:28:00;;;;;;;;;;;18.90;55.80;;;;;;7402888;19;1602;-74
2023/12/20 00:30:25;;;;;;;;;;;18.90;55.90;;;;;;7401101;19;4028;-74
2023/12/20 00:32:51;;;;;;;;;;;18.80;55.90;;;;;;7404093;19;1694;-74
2023/12/20 00:35:16;;;;;;;;;;;18.90;56.00;;;;;;7401022;19;2517;-74
2023/12/20 00:37:44;;;;;;;;;;;18.80;55.80;;;;;;7402743;19;2888;-74
2023/12/20 00:40:10;;;;;;;;;;;18.80;55.80;;;;;;7402091;19;2600;-74
2023/12/20 00:42:36;;;;;;;;;;;18.80;55.80;;;;;;7399760;19;3526;-74
2023/12/20 00:45:02;;;;;;;;;;;18.80;55.80;;;;;;7400550;19;3184;-75
2023/12/20 00:47:27;;;;;;;;;;;18.70;55.60;;;;;;7399448;19;1192;-74
2023/12/20 00:49:52;;;;;;;;;;;18.70;55.60;;;;;;7401485;19;2901;-74
2023/12/20 00:52:18;;;;;;;;;;;18.70;55.60;;;;;;7402501;19;2810;-74
2023/12/20 00:54:44;;;;;;;;;;;18.70;55.60;;;;;;7398209;19;1441;-74
2023/12/20 00:57:09;;;;;;;;;;;18.70;55.60;;;;;;7395347;19;3744;-74
2023/12/20 00:59:34;;;;;;;;;;;18.60;55.50;;;;;;7402446;19;3234;-74
2023/12/20 01:02:00;;;;;;;;;;;18.60;55.60;;;;;;7401687;19;1222;-74
2023/12/20 01:04:25;;;;;;;;;;;18.70;55.70;;;;;;7400739;19;4024;-74
2023/12/20 01:06:51;;;;;;;;;;;18.60;55.60;;;;;;7401825;19;3247;-74
2023/12/20 01:09:18;;;;;;;;;;;18.60;55.50;;;;;;7397688;19;1454;-74
2023/12/20 01:11:43;;;;;;;;;;;18.60;55.50;;;;;;7397967;19;3175;-74
2023/12/20 01:14:09;;;;;;;;;;;18.60;55.60;;;;;;7401969;19;2744;-74
2023/12/20 01:16:34;;;;;;;;;;;18.50;55.40;;;;;;7400154;19;1842;-74
2023/12/20 01:19:00;;;;;;;;;;;18.60;55.50;;;;;;7396972;19;4155;-74
2023/12/20 01:21:25;;;;;;;;;;;18.50;55.40;;;;;;7398741;19;1366;-74
2023/12/20 01:23:51;;;;;;;;;;;18.50;55.50;;;;;;7401671;19;1527;-74
2023/12/20 01:26:16;;;;;;;;;;;18.50;55.60;;;;;;7397998;19;2791;-74
2023/12/20 01:28:42;;;;;;;;;;;18.50;55.50;;;;;;7401391;19;3137;-74
2023/12/20 01:31:08;;;;;;;;;;;18.50;55.60;;;;;;7400666;19;1499;-74
2023/12/20 01:33:33;;;;;;;;;;;18.50;55.60;;;;;;7397673;19;3650;-75
2023/12/20 01:35:59;;;;;;;;;;;18.40;55.50;;;;;;7400533;19;2982;-74
2023/12/20 01:38:24;;;;;;;;;;;18.40;55.60;;;;;;7397084;19;1287;-74
2023/12/20 01:40:49;;;;;;;;;;;18.40;55.40;;;;;;7395435;19;2861;-74
2023/12/20 01:43:15;;;;;;;;;;;18.40;55.40;;;;;;7398611;19;3087;-75
2023/12/20 01:45:40;;;;;;;;;;;18.50;55.50;;;;;;7402711;19;3049;-75
2023/12/20 01:48:06;;;;;;;;;;;18.40;55.50;;;;;;7398922;19;3739;-74
2023/12/20 01:50:32;;;;;;;;;;;18.40;55.70;;;;;;7398405;19;4342;-74
2023/12/20 01:52:58;;;;;;;;;;;18.30;55.50;;;;;;7397939;19;1453;-75
2023/12/20 01:55:24;;;;;;;;;;;18.30;55.60;;;;;;7395752;19;3142;-74
2023/12/20 01:57:49;;;;;;;;;;;18.30;55.60;;;;;;7399375;19;1395;-74
2023/12/20 02:00:15;;;;;;;;;;;18.30;55.60;;;;;;7396684;19;993;-74
2023/12/20 02:02:40;;;;;;;;;;;18.30;55.50;;;;;;7399164;19;2905;-74
2023/12/20 02:05:06;;;;;;;;;;;18.20;55.50;;;;;;7399171;19;1457;-74
2023/12/20 02:07:31;;;;;;;;;;;18.30;55.50;;;;;;7399523;19;1408;-74
2023/12/20 02:09:57;;;;;;;;;;;18.20;55.50;;;;;;7393066;19;2799;-74
2023/12/20 02:12:22;;;;;;;;;;;18.20;55.40;;;;;;7399305;19;1454;-74
2023/12/20 02:14:48;;;;;;;;;;;18.30;55.60;;;;;;7395680;19;1154;-75
2023/12/20 02:17:14;;;;;;;;;;;18.30;55.30;;;;;;7393245;19;2530;-74
2023/12/20 02:19:39;;;;;;;;;;;18.30;55.00;;;;;;7396749;19;2767;-75
2023/12/20 02:22:06;;;;;;;;;;;18.40;54.90;;;;;;7399730;19;1661;-75
2023/12/20 02:24:32;;;;;;;;;;;18.50;54.70;;;;;;7394978;19;3424;-75
2023/12/20 02:26:57;;;;;;;;;;;18.70;54.60;;;;;;7398556;19;1419;-75
2023/12/20 02:29:22;;;;;;;;;;;18.80;54.20;;;;;;7400153;19;1583;-74
2023/12/20 02:31:48;;;;;;;;;;;18.90;54.00;;;;;;7395371;19;2851;-74
2023/12/20 02:34:13;;;;;;;;;;;19.00;53.50;;;;;;7399452;19;1572;-75
2023/12/20 02:36:39;;;;;;;;;;;19.20;53.30;;;;;;7396941;19;1861;-75
2023/12/20 02:39:04;;;;;;;;;;;19.30;53.10;;;;;;7395972;19;2958;-75
2023/12/20 02:41:30;;;;;;;;;;;19.40;52.80;;;;;;7398277;19;1541;-75
2023/12/20 02:43:55;;;;;;;;;;;19.50;52.60;;;;;;7394890;19;1295;-75
2023/12/20 02:46:20;;;;;;;;;;;19.60;52.50;;;;;;7394474;19;4217;-74
2023/12/20 02:48:47;;;;;;;;;;;19.70;52.40;;;;;;7398681;19;1590;-74
2023/12/20 02:51:12;;;;;;;;;;;19.70;52.20;;;;;;7397054;19;1533;-75
2023/12/20 02:53:37;;;;;;;;;;;19.60;52.10;;;;;;7396608;19;2736;-75
2023/12/20 02:56:03;;;;;;;;;;;19.70;52.00;;;;;;7394167;19;1860;-75
2023/12/20 02:58:29;;;;;;;;;;;19.70;51.90;;;;;;7398077;19;1568;-75
2023/12/20 03:00:54;;;;;;;;;;;19.70;51.90;;;;;;7395111;19;2968;-74
2023/12/20 03:03:19;;;;;;;;;;;19.70;52.00;;;;;;7396615;19;1574;-74
2023/12/20 03:05:46;;;;;;;;;;;19.60;52.00;;;;;;7398231;19;1396;-75
2023/12/20 03:08:11;;;;;;;;;;;19.60;51.90;;;;;;7394674;19;2864;-75
2023/12/20 03:10:37;;;;;;;;;;;19.50;51.90;;;;;;7395759;19;1542;-75
2023/12/20 03:13:02;;;;;;;;;;;19.50;52.00;;;;;;7398900;19;1427;-75
2023/12/20 03:15:27;;;;;;;;;;;19.50;52.00;;;;;;7392407;19;3445;-74
2023/12/20 03:17:53;;;;;;;;;;;19.50;52.00;;;;;;7398290;19;1532;-74
2023/12/20 03:20:18;;;;;;;;;;;19.40;51.90;;;;;;7397990;19;1825;-75
2023/12/20 03:22:44;;;;;;;;;;;19.40;51.80;;;;;;7394015;19;2837;-74
2023/12/20 03:25:09;;;;;;;;;;;19.30;51.90;;;;;;7397155;19;1581;-75
2023/12/20 03:27:36;;;;;;;;;;;19.30;52.00;;;;;;7396854;19;1533;-75
2023/12/20 03:30:02;;;;;;;;;;;19.20;52.00;;;;;;7394583;19;2840;-75
2023/12/20 03:32:27;;;;;;;;;;;19.20;52.10;;;;;;7397642;19;1438;-75
2023/12/20 03:34:53;;;;;;;;;;;19.20;52.00;;;;;;7396360;19;1399;-75
2023/12/20 03:37:18;;;;;;;;;;;19.10;51.90;;;;;;7391441;19;3856;-75
2023/12/20 03:39:44;;;;;;;;;;;19.10;52.00;;;;;;7395468;19;1662;-74
2023/12/20 03:42:09;;;;;;;;;;;19.10;51.90;;;;;;7395735;19;3108;-75
2023/12/20 03:44:37;;;;;;;;;;;19.20;51.90;;;;;;7392937;19;3194;-74
2023/12/20 03:47:03;;;;;;;;;;;19.10;51.80;;;;;;7397090;19;1574;-74
2023/12/20 03:49:28;;;;;;;;;;;19.10;51.70;;;;;;7393237;19;859;-75
2023/12/20 03:51:54;;;;;;;;;;;19.00;51.60;;;;;;7396046;19;3433;-74
2023/12/20 03:54:19;;;;;;;;;;;19.00;51.70;;;;;;7397730;19;1565;-74
2023/12/20 03:56:45;;;;;;;;;;;19.00;51.90;;;;;;7391709;19;1845;-74
2023/12/20 03:59:10;;;;;;;;;;;19.00;51.80;;;;;;7394411;19;2754;-75
2023/12/20 04:01:35;;;;;;;;;;;19.00;51.70;;;;;;7398380;19;1591;-75
2023/12/20 04:04:01;;;;;;;;;;;19.00;51.70;;;;;;7397137;19;1582;-75
2023/12/20 04:06:26;;;;;;;;;;;19.00;51.60;;;;;;7395334;19;3190;-75
2023/12/20 04:08:52;;;;;;;;;;;19.00;51.50;;;;;;7395315;19;1665;-74
2023/12/20 04:11:17;;;;;;;;;;;19.10;51.40;;;;;;7397174;19;1483;-75
2023/12/20 04:13:43;;;;;;;;;;;19.20;51.40;;;;;;7394553;19;3828;-75
2023/12/20 04:16:08;;;;;;;;;;;19.20;51.20;;;;;;7391661;19;1861;-75
2023/12/20 04:18:34;;;;;;;;;;;19.20;51.10;;;;;;7396346;19;1806;-75
2023/12/20 04:20:59;;;;;;;;;;;19.20;51.00;;;;;;7393489;19;4489;-74
2023/12/20 04:23:25;;;;;;;;;;;19.20;51.00;;;;;;7393502;19;4588;-74
2023/12/20 04:25:50;;;;;;;;;;;19.20;50.90;;;;;;7394300;19;1356;-74
2023/12/20 04:28:15;;;;;;;;;;;19.20;50.90;;;;;;7390665;19;4348;-74
2023/12/20 04:30:41;;;;;;;;;;;19.20;50.90;;;;;;7394466;19;1507;-75
2023/12/20 04:33:07;;;;;;;;;;;19.20;50.90;;;;;;7394719;19;1631;-75
2023/12/20 04:35:32;;;;;;;;;;;19.20;50.90;;;;;;7393319;19;2838;-74
2023/12/20 04:37:58;;;;;;;;;;;19.10;50.90;;;;;;7392061;19;1628;-75
2023/12/20 04:40:23;;;;;;;;;;;19.10;50.90;;;;;;7392738;19;1524;-75
2023/12/20 04:42:49;;;;;;;;;;;19.10;50.80;;;;;;7393140;19;5149;-73
2023/12/20 04:45:15;;;;;;;;;;;19.10;50.90;;;;;;7391906;19;3195;-75
2023/12/20 04:47:41;;;;;;;;;;;19.00;50.80;;;;;;7394149;19;1893;-75
2023/12/20 04:50:07;;;;;;;;;;;19.00;50.80;;;;;;7392669;19;4034;-75
2023/12/20 04:52:32;;;;;;;;;;;19.00;50.90;;;;;;7392790;19;930;-75
2023/12/20 04:54:59;;;;;;;;;;;19.00;50.80;;;;;;7392136;19;827;-74
2023/12/20 04:57:24;;;;;;;;;;;19.00;50.80;;;;;;7400358;19;4084;-74
2023/12/20 04:59:50;;;;;;;;;;;19.00;50.80;;;;;;7404018;19;1580;-74
2023/12/20 05:02:15;;;;;;;;;;;19.00;50.80;;;;;;7402239;19;2647;-74
2023/12/20 05:04:41;;;;;;;;;;;19.00;50.80;;;;;;7401250;19;2666;-75
2023/12/20 05:07:06;;;;;;;;;;;18.90;50.80;;;;;;7399092;19;1391;-75
2023/12/20 05:09:32;;;;;;;;;;;19.00;50.80;;;;;;7396485;19;1522;-74
2023/12/20 05:11:57;;;;;;;;;;;19.00;50.70;;;;;;7399928;19;3768;-75
2023/12/20 05:14:23;;;;;;;;;;;18.90;50.50;;;;;;7398280;19;2772;-74
2023/12/20 05:16:48;;;;;;;;;;;19.00;50.50;;;;;;7399350;19;2711;-74
2023/12/20 05:19:14;;;;;;;;;;;19.00;50.50;;;;;;7399114;19;2837;-74
2023/12/20 05:21:39;;;;;;;;;;;19.00;50.40;;;;;;7398424;19;1526;-74
2023/12/20 05:24:05;;;;;;;;;;;19.00;50.40;;;;;;7398113;19;2998;-74
2023/12/20 05:26:30;;;;;;;;;;;19.00;50.40;;;;;;7398915;19;2851;-74
2023/12/20 05:28:58;;;;;;;;;;;19.00;50.20;;;;;;7401023;19;1595;-74
2023/12/20 05:31:24;;;;;;;;;;;19.00;50.20;;;;;;7401079;19;1498;-75
2023/12/20 05:33:49;;;;;;;;;;;19.00;50.20;;;;;;7400374;19;2837;-74
2023/12/20 05:36:15;;;;;;;;;;;19.00;50.20;;;;;;7399152;19;1838;-74
2023/12/20 05:38:40;;;;;;;;;;;19.00;50.20;;;;;;7400212;19;2444;-74
2023/12/20 05:41:06;;;;;;;;;;;19.00;50.30;;;;;;7402155;19;3158;-74
2023/12/20 05:43:31;;;;;;;;;;;19.00;50.30;;;;;;7397876;19;3849;-74
2023/12/20 05:45:57;;;;;;;;;;;19.00;50.30;;;;;;7397276;19;3827;-74
2023/12/20 05:48:23;;;;;;;;;;;19.00;50.30;;;;;;7401922;19;2789;-74
2023/12/20 05:50:49;;;;;;;;;;;19.00;50.30;;;;;;7398308;19;1911;-74
2023/12/20 05:53:14;;;;;;;;;;;19.00;50.30;;;;;;7399601;19;3968;-74
2023/12/20 05:55:40;;;;;;;;;;;19.00;50.40;;;;;;7397700;19;2925;-74
2023/12/20 05:58:05;;;;;;;;;;;19.00;50.50;;;;;;7400476;19;1595;-74
2023/12/20 06:00:31;;;;;;;;;;;19.00;50.60;;;;;;7398950;19;5930;-74
2023/12/20 06:02:56;;;;;;;;;;;18.90;50.80;;;;;;7402338;19;2554;-74
2023/12/20 06:05:21;;;;;;;;;;;18.90;50.90;;;;;;7401088;19;1661;-74
2023/12/20 06:07:48;;;;;;;;;;;18.80;50.90;;;;;;7397940;19;3010;-74
2023/12/20 06:10:13;;;;;;;;;;;18.80;50.90;;;;;;7398999;19;3267;-74
2023/12/20 06:12:39;;;;;;;;;;;18.80;51.00;;;;;;7400008;19;1466;-74
2023/12/20 06:15:05;;;;;;;;;;;18.80;50.90;;;;;;7396539;19;2929;-74
2023/12/20 06:17:31;;;;;;;;;;;18.80;51.00;;;;;;7398694;19;3053;-74
2023/12/20 06:19:56;;;;;;;;;;;18.80;50.80;;;;;;7398067;19;1393;-74
2023/12/20 06:22:22;;;;;;;;;;;18.80;50.80;;;;;;7397657;19;2841;-75
2023/12/20 06:24:48;;;;;;;;;;;18.90;50.90;;;;;;7397999;19;1453;-74
2023/12/20 06:27:13;;;;;;;;;;;18.90;50.70;;;;;;7396052;19;1503;-74
2023/12/20 06:29:38;;;;;;;;;;;19.00;50.60;;;;;;7397473;19;4414;-74
2023/12/20 06:32:04;;;;;;;;;;;19.00;50.30;;;;;;7399910;19;2695;-74
2023/12/20 06:34:29;;;;;;;;;;;19.10;50.30;;;;;;7398029;19;1550;-74
2023/12/20 06:36:55;;;;;;;;;;;19.20;50.20;;;;;;7397242;19;3751;-74
2023/12/20 06:39:20;;;;;;;;;;;19.20;50.10;;;;;;7398100;19;3307;-74
2023/12/20 06:41:46;;;;;;;;;;;19.20;50.10;;;;;;7399952;19;1505;-74
2023/12/20 06:44:11;;;;;;;;;;;19.20;50.10;;;;;;7394576;19;4159;-74
2023/12/20 06:46:36;;;;;;;;;;;19.20;50.20;;;;;;7397913;19;1520;-74
2023/12/20 06:49:02;;;;;;;;;;;19.20;50.30;;;;;;7396414;19;2072;-74
2023/12/20 06:51:27;;;;;;;;;;;19.20;50.30;;;;;;7396796;19;2878;-74
2023/12/20 06:53:53;;;;;;;;;;;19.20;50.10;;;;;;7398563;19;1508;-74
2023/12/20 06:56:18;;;;;;;;;;;19.20;50.30;;;;;;7395067;19;1864;-74
2023/12/20 06:58:44;;;;;;;;;;;19.30;50.20;;;;;;7396446;19;2715;-74
2023/12/20 07:01:13;;;;;;;;;;;19.30;50.30;;;;;;7396522;19;2841;-75
2023/12/20 07:03:39;;;;;;;;;;;19.20;50.30;;;;;;7401968;19;2794;-75
2023/12/20 07:06:04;;;;;;;;;;;19.20;50.20;;;;;;7396250;19;3045;-73
2023/12/20 07:08:29;;;;;;;;;;;19.30;50.30;;;;;;7396190;19;1487;-73
2023/12/20 07:10:55;;;;;;;;;;;19.30;50.30;;;;;;7396416;19;1612;-72
2023/12/20 07:13:22;;;;;;;;;;;19.30;50.20;;;;;;7395050;19;3639;-73
2023/12/20 07:15:47;;;;;;;;;;;19.30;50.30;;;;;;7397027;19;1845;-73
2023/12/20 07:18:12;;;;;;;;;;;19.30;50.30;;;;;;7395738;19;1377;-73
2023/12/20 07:20:38;;;;;;;;;;;19.20;50.40;;;;;;7396833;19;2697;-73
2023/12/20 07:23:04;;;;;;;;;;;19.20;50.30;;;;;;7397339;19;1626;-73
2023/12/20 07:25:32;;;;;;;;;;;19.20;50.30;;;;;;7394617;19;1518;-73
2023/12/20 07:28:00;;;;;;;;;;;19.20;51.00;;;;;;7394040;19;2742;-73
2023/12/20 07:30:26;;;;;;;;;;;19.20;50.40;;;;;;7395650;19;1352;-72
2023/12/20 07:32:52;;;;;;;;;;;19.20;50.30;;;;;;7397770;19;1530;-73
2023/12/20 07:35:17;;;;;;;;;;;19.20;50.30;;;;;;7393188;19;2912;-75
2023/12/20 07:37:43;;;;;;;;;;;19.30;50.40;;;;;;7397720;19;1542;-73
2023/12/20 07:40:11;;;;;;;;;;;19.30;50.30;;;;;;7392811;19;1657;-73
2023/12/20 07:42:37;;;;;;;;;;;19.30;50.40;;;;;;7394872;19;2882;-73
2023/12/20 07:45:03;;;;;;;;;;;19.30;50.40;;;;;;7392733;19;2956;-74
2023/12/20 07:47:28;;;;;;;;;;;19.30;50.30;;;;;;7394677;19;2186;-74
2023/12/20 07:49:53;;;;;;;;;;;19.30;50.20;;;;;;7393715;19;2799;-74
2023/12/20 07:52:19;;;;;;;;;;;19.30;50.10;;;;;;7396330;19;1494;-74
2023/12/20 07:54:45;;;;;;;;;;;19.30;50.20;;;;;;7394361;19;1287;-74
2023/12/20 07:57:10;;;;;;;;;;;19.40;50.20;;;;;;7391159;19;2791;-74
2023/12/20 07:59:36;;;;;;;;;;;19.40;50.20;;;;;;7396352;19;1356;-74
2023/12/20 08:02:01;;;;;;;;;;;19.40;50.20;;;;;;7394084;19;2474;-74
2023/12/20 08:04:27;;;;;;;;;;;19.40;50.20;;;;;;7391147;19;2994;-74
2023/12/20 08:06:52;;;;;;;;;;;19.50;50.20;;;;;;7395722;19;1619;-74
2023/12/20 08:09:18;;;;;;;;;;;19.40;50.10;;;;;;7393602;19;1866;-74
2023/12/20 08:11:47;;;;;;;;;;;19.40;50.10;;;;;;7392586;19;2769;-74
2023/12/20 08:14:12;;;;;;;;;;;19.30;50.20;;;;;;7392707;19;2570;-74
2023/12/20 08:16:38;;;;;;;;;;;19.30;50.40;;;;;;7394851;19;1850;-74
2023/12/20 08:19:03;;;;;;;;;;;19.30;50.40;;;;;;7393804;19;3396;-74
2023/12/20 08:21:28;;;;;;;;;;;19.20;50.40;;;;;;7395454;19;1894;-74
2023/12/20 08:23:54;;;;;;;;;;;19.20;50.50;;;;;;7394465;19;1485;-74
2023/12/20 08:26:24;;;;;;;;;;;19.20;50.50;;;;;;7392425;19;3856;-74
2023/12/20 08:28:49;;;;;;;;;;;19.20;50.60;;;;;;7395503;19;2932;-74
2023/12/20 08:31:16;;;;;;;;;;;19.20;50.50;;;;;;7402995;19;1566;-74
2023/12/20 08:33:42;;;;;;;;;;;19.30;50.40;;;;;;7402132;19;5152;-74
2023/12/20 08:36:08;;;;;;;;;;;19.20;50.30;;;;;;7400098;19;1854;-74
2023/12/20 08:38:33;;;;;;;;;;;19.30;50.50;;;;;;7402566;19;1638;-74
2023/12/20 08:40:59;;;;;;;;;;;19.20;50.40;;;;;;7396433;19;3766;-74
2023/12/20 08:43:24;;;;;;;;;;;19.30;50.40;;;;;;7403811;19;2044;-74
2023/12/20 08:45:50;;;;;;;;;;;19.30;50.40;;;;;;7399794;19;4087;-75
2023/12/20 08:48:15;;;;;;;;;;;19.30;50.30;;;;;;7400726;19;4061;-74
2023/12/20 08:50:41;;;;;;;;;;;19.30;50.30;;;;;;7399536;19;2778;-74
2023/12/20 08:53:06;;;;;;;;;;;19.30;50.20;;;;;;7404849;19;1260;-74
2023/12/20 08:55:32;;;;;;;;;;;19.30;50.30;;;;;;7392084;19;2833;-74
2023/12/20 08:57:58;;;;;;;;;;;19.30;50.50;;;;;;7400531;19;3396;-74
2023/12/20 09:00:27;;;;;;;;;;;19.30;50.40;;;;;;7401994;19;3617;-74
2023/12/20 09:02:53;;;;;;;;;;;19.30;50.30;;;;;;7397608;19;3030;-74
2023/12/20 09:05:18;;;;;;;;;;;19.40;51.10;;;;;;7397011;19;3963;-74
2023/12/20 09:07:43;;;;;;;;;;;19.30;50.40;;;;;;7396839;19;3396;-74
2023/12/20 09:10:09;;;;;;;;;;;19.40;50.60;;;;;;7397532;19;4129;-74
2023/12/20 09:12:35;;;;;;;;;;;19.30;50.60;;;;;;7400868;19;1904;-74
2023/12/20 09:15:02;;;;;;;;;;;19.30;50.40;;;;;;7400195;19;2649;-74
2023/12/20 09:17:28;;;;;;;;;;;19.30;50.50;;;;;;7397204;19;2870;-74
2023/12/20 09:19:54;;;;;;;;;;;19.30;50.60;;;;;;7398303;19;3595;-75
2023/12/20 09:22:19;;;;;;;;;;;19.30;50.50;;;;;;7401580;19;1238;-75
2023/12/20 09:24:44;;;;;;;;;;;19.30;50.50;;;;;;7398293;19;2888;-75
2023/12/20 09:27:10;;;;;;;;;;;19.30;50.60;;;;;;7400178;19;1645;-75
2023/12/20 09:29:35;;;;;;;;;;;19.30;50.60;;;;;;7400874;19;1583;-74
2023/12/20 09:32:01;;;;;;;;;;;19.30;50.50;;;;;;7397128;19;3935;-74
2023/12/20 09:34:26;;;;;;;;;;;19.40;50.50;;;;;;7391992;19;6049;-74
2023/12/20 09:36:52;;;;;;;;;;;19.40;50.30;;;;;;7394673;19;2480;-74
2023/12/20 09:39:21;;;;;;;;;;;19.40;50.60;;;;;;7398180;19;2450;-74
2023/12/20 09:42:03;;;;;;;;;;;19.80;50.30;;;;;;7394922;19;4506;-74
2023/12/20 09:44:28;;;;;;;;;;;20.30;49.30;;;;;;7399190;19;2379;-74
2023/12/20 09:46:54;;;;;;;;;;;20.80;48.60;;;;;;7398215;19;2483;-74
2023/12/20 09:49:20;;;;;;;;;;;21.20;47.70;;;;;;7399865;19;1563;-74
2023/12/20 09:51:46;;;;;;;;;;;21.40;47.40;;;;;;7401519;19;1460;-74
2023/12/20 09:54:12;;;;;;;;;;;21.50;46.90;;;;;;7398422;19;4925;-74
2023/12/20 09:56:38;;;;;;;;;;;21.60;46.80;;;;;;7397536;19;3147;-74
2023/12/20 09:59:04;;;;;;;;;;;21.60;46.60;;;;;;7400969;19;2203;-74
2023/12/20 10:01:29;;;;;;;;;;;21.70;46.50;;;;;;7397219;19;2594;-74
2023/12/20 10:03:55;;;;;;;;;;;21.80;46.40;;;;;;7400005;19;1758;-73
2023/12/20 10:06:20;;;;;;;;;;;21.90;46.10;;;;;;7397640;19;3586;-75
2023/12/20 10:08:46;;;;;;;;;;;22.00;46.10;;;;;;7400493;19;1422;-74
2023/12/20 10:11:11;;;;;;;;;;;21.90;46.00;;;;;;7395370;19;3129;-75
2023/12/20 10:13:41;;;;;;;;;;;21.90;46.00;;;;;;7399966;19;2736;-74
2023/12/20 10:16:07;;;;;;;;;;;22.00;46.00;;;;;;7400330;19;1850;-73
2023/12/20 10:18:32;;;;;;;;;;;22.00;46.10;;;;;;7397851;19;2838;-73
2023/12/20 10:20:58;;;;;;;;;;;22.00;46.00;;;;;;7397477;19;3076;-74
2023/12/20 10:23:23;;;;;;;;;;;22.20;46.00;;;;;;7400140;19;1610;-74
2023/12/20 10:25:56;;;;;;;;;;;22.20;45.80;;;;;;7397321;19;1555;-73
2023/12/20 10:28:23;;;;;;;;;;;22.10;45.70;;;;;;7399701;19;1453;-74
2023/12/20 10:30:48;;;;;;;;;;;22.10;45.70;;;;;;7397956;19;2521;-74
2023/12/20 10:33:15;;;;;;;;;;;22.20;45.50;;;;;;7397281;19;2075;-74
2023/12/20 10:35:41;;;;;;;;;;;22.10;45.70;;;;;;7397485;19;1842;-74
2023/12/20 10:38:06;;;;;;;;;;;22.20;45.60;;;;;;7398413;19;1421;-74
2023/12/20 10:40:34;;;;;;;;;;;22.20;45.70;;;;;;7396822;19;3609;-73
2023/12/20 10:42:59;;;;;;;;;;;22.20;45.70;;;;;;7399043;19;3284;-75
2023/12/20 10:45:25;;;;;;;;;;;21.90;45.60;;;;;;7395590;19;1752;-73
2023/12/20 10:47:51;;;;;;;;;;;22.20;45.90;;;;;;7396994;19;3844;-73
2023/12/20 10:50:16;;;;;;;;;;;22.10;45.40;;;;;;7392555;19;4545;-74
2023/12/20 10:52:42;;;;;;;;;;;22.10;45.50;;;;;;7396227;19;2615;-73
2023/12/20 10:55:08;;;;;;;;;;;22.30;45.60;;;;;;7394483;19;4579;-72
2023/12/20 10:57:33;;;;;;;;;;;22.20;45.30;;;;;;7397953;19;1850;-73
2023/12/20 11:00:00;;;;;;;;;;;22.20;45.40;;;;;;7396890;19;4618;-74
2023/12/20 11:02:26;;;;;;;;;;;22.30;45.30;;;;;;7394206;19;4393;-73
2023/12/20 11:05:10;;;;;;;;;;;22.40;45.20;;;;;;7392173;19;4833;-74
2023/12/20 11:07:37;;;;;;;;;;;22.30;45.10;;;;;;7392627;19;3607;-74
2023/12/20 11:10:41;;;;;;;;;;;22.40;45.20;;;;;;7391700;19;3386;-73
2023/12/20 11:13:17;;;;;;;;;;;22.50;45.00;;;;;;7394042;19;1711;-74
2023/12/20 11:15:42;;;;;;;;;;;22.60;45.00;;;;;;7394787;19;2186;-74
2023/12/20 11:18:08;;;;;;;;;;;22.50;44.80;;;;;;7392678;19;2631;-75
2023/12/20 11:20:37;;;;;;;;;;;22.50;44.90;;;;;;7394989;19;2801;-73
2023/12/20 11:23:03;;;;;;;;;;;22.50;45.00;;;;;;7396347;19;1744;-74
2023/12/20 11:25:28;;;;;;;;;;;22.50;44.90;;;;;;7394700;19;1514;-74
2023/12/20 11:28:06;;;;;;;;;;;22.50;45.10;;;;;;7395737;19;2304;-74
2023/12/20 11:30:48;;;;;;;;;;;22.50;45.10;;;;;;7394956;19;1700;-75
2023/12/20 11:33:14;;;;;;;;;;;22.30;45.60;;;;;;7385743;19;3440;-74
2023/12/20 11:35:40;;;;;;;;;;;22.40;45.50;;;;;;7396227;19;1850;-74
2023/12/20 11:38:07;;;;;;;;;;;22.40;45.70;;;;;;7388587;19;2933;-74
2023/12/20 11:40:32;;;;;;;;;;;22.40;45.70;;;;;;7390519;19;3498;-73
2023/12/20 11:42:58;;;;;;;;;;;22.50;45.50;;;;;;7396375;19;1415;-74
2023/12/20 11:45:24;;;;;;;;;;;22.50;45.50;;;;;;7393024;19;2256;-74
2023/12/20 11:47:49;;;;;;;;;;;22.40;45.70;;;;;;7395466;19;1536;-74
2023/12/20 11:50:15;;;;;;;;;;;22.30;45.80;;;;;;7388513;19;4685;-74
2023/12/20 11:52:41;;;;;;;;;;;22.30;46.30;;;;;;7390079;19;3002;-73
2023/12/20 11:55:06;;;;;;;;;;;22.40;46.10;;;;;;7390107;19;4923;-74
2023/12/20 11:57:32;;;;;;;;;;;22.50;45.80;;;;;;7390206;19;3373;-73
2023/12/20 11:59:57;;;;;;;;;;;22.50;45.70;;;;;;7392730;19;2971;-73
2023/12/20 12:02:23;;;;;;;;;;;22.50;45.70;;;;;;7391147;19;4882;-73
2023/12/20 12:04:50;;;;;;;;;;;22.40;45.90;;;;;;7396465;19;3232;-73
2023/12/20 12:07:16;;;;;;;;;;;22.40;45.80;;;;;;7393609;19;3439;-73
2023/12/20 12:09:41;;;;;;;;;;;22.50;45.80;;;;;;7395919;19;4922;-73
2023/12/20 12:12:07;;;;;;;;;;;22.40;45.70;;;;;;7401685;19;3884;-74
2023/12/20 12:14:33;;;;;;;;;;;22.50;45.70;;;;;;7401537;19;1904;-74
2023/12/20 12:16:58;;;;;;;;;;;22.50;45.90;;;;;;7400253;19;3027;-75
2023/12/20 12:19:24;;;;;;;;;;;22.60;45.70;;;;;;7402988;19;1513;-76
2023/12/20 12:22:10;;;;;;;;;;;22.60;45.60;;;;;;7404241;19;1997;-75
2023/12/20 12:24:37;;;;;;;;;;;22.60;45.50;;;;;;7402853;19;1819;-76
2023/12/20 12:27:03;;;;;;;;;;;22.70;45.60;;;;;;7394737;19;4648;-75
2023/12/20 12:29:28;;;;;;;;;;;22.70;45.60;;;;;;7395329;19;4865;-75
2023/12/20 12:31:54;;;;;;;;;;;22.70;45.40;;;;;;7398642;19;3179;-76
2023/12/20 12:34:20;;;;;;;;;;;22.60;45.50;;;;;;7398842;19;1443;-76
2023/12/20 12:36:46;;;;;;;;;;;22.60;45.60;;;;;;7397105;19;2471;-75
2023/12/20 12:39:17;;;;;;;;;;;22.60;45.50;;;;;;7395802;19;4806;-75
2023/12/20 12:41:43;;;;;;;;;;;22.80;45.40;;;;;;7397219;19;4810;-75
2023/12/20 12:44:08;;;;;;;;;;;22.70;45.40;;;;;;7399257;19;4999;-75
2023/12/20 12:46:34;;;;;;;;;;;22.90;45.30;;;;;;7395728;19;4829;-75
2023/12/20 12:48:59;;;;;;;;;;;22.90;45.30;;;;;;7399527;19;2519;-75
2023/12/20 12:51:25;;;;;;;;;;;22.80;45.50;;;;;;7396097;19;5093;-75
2023/12/20 12:53:50;;;;;;;;;;;22.60;45.80;;;;;;7398814;19;3237;-75
2023/12/20 12:56:16;;;;;;;;;;;22.50;45.90;;;;;;7392602;19;5887;-75
2023/12/20 12:58:41;;;;;;;;;;;22.50;46.30;;;;;;7401715;19;1751;-75
2023/12/20 13:01:07;;;;;;;;;;;22.30;46.30;;;;;;7398578;19;2934;-75
2023/12/20 13:03:34;;;;;;;;;;;22.30;46.50;;;;;;7401359;19;1666;-76
2023/12/20 13:05:59;;;;;;;;;;;22.30;46.30;;;;;;7402677;19;4822;-75
2023/12/20 13:08:25;;;;;;;;;;;22.50;46.30;;;;;;7396674;19;3157;-74
2023/12/20 13:10:50;;;;;;;;;;;22.60;45.90;;;;;;7399492;19;1563;-74
2023/12/20 13:13:15;;;;;;;;;;;22.50;46.00;;;;;;7396729;19;4426;-74
2023/12/20 13:15:42;;;;;;;;;;;22.50;46.10;;;;;;7401841;19;4585;-75
2023/12/20 13:18:07;;;;;;;;;;;22.60;46.30;;;;;;7406593;19;4630;-75
2023/12/20 13:20:33;;;;;;;;;;;22.50;46.20;;;;;;7402377;19;4585;-75
2023/12/20 13:22:59;;;;;;;;;;;22.60;46.00;;;;;;7404313;19;3645;-75
2023/12/20 13:25:24;;;;;;;;;;;22.60;46.00;;;;;;7406128;19;1525;-75
2023/12/20 13:27:50;;;;;;;;;;;22.50;46.10;;;;;;7403542;19;4521;-74
2023/12/20 13:30:16;;;;;;;;;;;22.40;46.40;;;;;;7403598;19;3405;-75
2023/12/20 13:32:41;;;;;;;;;;;22.50;46.40;;;;;;7401326;19;3062;-75
2023/12/20 13:35:07;;;;;;;;;;;22.50;46.10;;;;;;7404508;19;3085;-74
2023/12/20 13:37:32;;;;;;;;;;;22.50;46.30;;;;;;7399130;19;4624;-74
2023/12/20 13:39:58;;;;;;;;;;;22.50;46.10;;;;;;7404464;19;3885;-75
2023/12/20 13:42:23;;;;;;;;;;;22.60;46.00;;;;;;7399949;19;3081;-74
2023/12/20 13:44:49;;;;;;;;;;;22.70;45.90;;;;;;7400696;19;1710;-75
2023/12/20 13:47:14;;;;;;;;;;;22.70;45.80;;;;;;7398481;19;2068;-75
2023/12/20 13:49:40;;;;;;;;;;;22.80;45.70;;;;;;7400711;19;3356;-74
2023/12/20 13:52:05;;;;;;;;;;;22.80;45.70;;;;;;7393873;19;2869;-74
2023/12/20 13:54:31;;;;;;;;;;;22.80;45.60;;;;;;7396024;19;4471;-74
2023/12/20 13:56:57;;;;;;;;;;;22.90;45.70;;;;;;7389349;19;2876;-74
2023/12/20 13:59:23;;;;;;;;;;;22.80;45.50;;;;;;7391738;19;2823;-74
2023/12/20 14:01:50;;;;;;;;;;;22.70;45.50;;;;;;7400028;19;1588;-73
2023/12/20 14:04:15;;;;;;;;;;;22.70;45.80;;;;;;7400499;19;1569;-75
2023/12/20 14:06:41;;;;;;;;;;;22.70;45.70;;;;;;7399007;19;2124;-74
2023/12/20 14:09:06;;;;;;;;;;;22.80;45.80;;;;;;7396062;19;2806;-75
2023/12/20 14:11:32;;;;;;;;;;;22.80;45.60;;;;;;7397551;19;3761;-75
2023/12/20 14:13:58;;;;;;;;;;;22.90;45.50;;;;;;7395490;19;5074;-75
2023/12/20 14:16:23;;;;;;;;;;;22.90;45.60;;;;;;7398231;19;3455;-76
2023/12/20 14:18:49;;;;;;;;;;;22.90;45.50;;;;;;7397894;19;2615;-75
2023/12/20 14:21:14;;;;;;;;;;;22.90;45.50;;;;;;7397668;19;1849;-76
2023/12/20 14:23:40;;;;;;;;;;;22.90;45.30;;;;;;7397519;19;5002;-74